QLK57D YMML-YDPO
Flight info
| Callsign | QLK57D |
|---|---|
| Flight time | 0h 51m |
| Altitude | 25000 |
| Route | SUNTI H169 AHOSK DCT DPOWG |
| Aircraft | DH8D/M-SDE2E3FGRY/H |
Departure
| Time | 2026-04-11 10:55 |
|---|---|
| Airport | Melbourne Airport (YMML) |
Arrival
| Time | 2026-04-11 11:46 |
|---|---|
| Airport | Devonport Airport (YDPO) |
| Time | Latitude | Longitude | Altitude | Speed | Heading |
|---|---|---|---|---|---|
| 2026-04-11 10:30 | -37.66695 | 144.85153 | 411 ft | 0 kts | 81° |
| 2026-04-11 10:48 | -37.66696 | 144.85149 | 410 ft | 2 kts | 83° |
| 2026-04-11 10:48 | -37.66697 | 144.85129 | 410 ft | 2 kts | 92° |
| 2026-04-11 10:48 | -37.66695 | 144.85110 | 410 ft | 2 kts | 98° |
| 2026-04-11 10:49 | -37.66696 | 144.85097 | 410 ft | 0 kts | 74° |
| 2026-04-11 10:49 | -37.66701 | 144.85088 | 410 ft | 1 kts | 27° |
| 2026-04-11 10:49 | -37.66710 | 144.85086 | 411 ft | 1 kts | 351° |
| 2026-04-11 10:49 | -37.66712 | 144.85086 | 411 ft | 0 kts | 351° |
| 2026-04-11 10:52 | -37.66699 | 144.85083 | 410 ft | 10 kts | 352° |
| 2026-04-11 10:52 | -37.66578 | 144.85065 | 410 ft | 25 kts | 352° |
| 2026-04-11 10:52 | -37.66427 | 144.84988 | 410 ft | 23 kts | 323° |
| 2026-04-11 10:52 | -37.66352 | 144.84915 | 410 ft | 0 kts | 319° |
| 2026-04-11 10:54 | -37.66350 | 144.84914 | 410 ft | 4 kts | 319° |
| 2026-04-11 10:54 | -37.66266 | 144.84830 | 410 ft | 19 kts | 321° |
| 2026-04-11 10:54 | -37.66212 | 144.84595 | 410 ft | 57 kts | 275° |
| 2026-04-11 10:54 | -37.66161 | 144.83722 | 425 ft | 133 kts | 275° |
| 2026-04-11 10:55 | -37.66083 | 144.82500 | 892 ft | 146 kts | 275° |
| 2026-04-11 10:55 | -37.65993 | 144.81119 | 1352 ft | 168 kts | 274° |
| 2026-04-11 10:55 | -37.65910 | 144.79695 | 2225 ft | 165 kts | 274° |
| 2026-04-11 10:55 | -37.65799 | 144.78275 | 3046 ft | 166 kts | 274° |
| 2026-04-11 10:56 | -37.65901 | 144.76872 | 3834 ft | 166 kts | 245° |
| 2026-04-11 10:56 | -37.66856 | 144.76068 | 4560 ft | 184 kts | 195° |
| 2026-04-11 10:56 | -37.68163 | 144.76344 | 5306 ft | 199 kts | 171° |
| 2026-04-11 10:56 | -37.69471 | 144.76926 | 5964 ft | 201 kts | 169° |
| 2026-04-11 10:57 | -37.70777 | 144.77551 | 6585 ft | 203 kts | 168° |
| 2026-04-11 10:57 | -37.72107 | 144.78214 | 7204 ft | 205 kts | 167° |
| 2026-04-11 10:57 | -37.73432 | 144.78889 | 7808 ft | 208 kts | 167° |
| 2026-04-11 10:57 | -37.74782 | 144.79590 | 8421 ft | 210 kts | 167° |
| 2026-04-11 10:58 | -37.76129 | 144.80299 | 9041 ft | 211 kts | 167° |
| 2026-04-11 10:58 | -37.77472 | 144.81014 | 9648 ft | 213 kts | 167° |
| 2026-04-11 10:58 | -37.78845 | 144.81746 | 10239 ft | 216 kts | 167° |
| 2026-04-11 10:58 | -37.80267 | 144.82503 | 10638 ft | 229 kts | 167° |
| 2026-04-11 10:59 | -37.81745 | 144.83296 | 11131 ft | 235 kts | 167° |
| 2026-04-11 10:59 | -37.83243 | 144.84111 | 11701 ft | 238 kts | 167° |
| 2026-04-11 10:59 | -37.84763 | 144.84940 | 12280 ft | 240 kts | 167° |
| 2026-04-11 10:59 | -37.86313 | 144.85786 | 12860 ft | 241 kts | 167° |
| 2026-04-11 11:00 | -37.87855 | 144.86629 | 13388 ft | 244 kts | 167° |
| 2026-04-11 11:00 | -37.89420 | 144.87485 | 13944 ft | 245 kts | 167° |
| 2026-04-11 11:00 | -37.91000 | 144.88347 | 14437 ft | 247 kts | 168° |
| 2026-04-11 11:00 | -37.92575 | 144.89209 | 14963 ft | 248 kts | 168° |
| 2026-04-11 11:01 | -37.94168 | 144.90082 | 15466 ft | 248 kts | 169° |
| 2026-04-11 11:01 | -37.95754 | 144.90948 | 15890 ft | 252 kts | 169° |
| 2026-04-11 11:01 | -37.97353 | 144.91826 | 16385 ft | 252 kts | 169° |
| 2026-04-11 11:01 | -37.98969 | 144.92711 | 16826 ft | 252 kts | 169° |
| 2026-04-11 11:02 | -38.00579 | 144.93594 | 17250 ft | 254 kts | 170° |
| 2026-04-11 11:02 | -38.02216 | 144.94490 | 17670 ft | 254 kts | 170° |
| 2026-04-11 11:02 | -38.03839 | 144.95378 | 18044 ft | 257 kts | 171° |
| 2026-04-11 11:02 | -38.05204 | 144.96127 | 18318 ft | 260 kts | 171° |
| 2026-04-11 11:03 | -38.06768 | 144.96976 | 18726 ft | 258 kts | 171° |
| 2026-04-11 11:03 | -38.07895 | 144.97592 | 18937 ft | 263 kts | 171° |
| 2026-04-11 11:03 | -38.09571 | 144.98517 | 19330 ft | 262 kts | 170° |
| 2026-04-11 11:04 | -38.11253 | 144.99446 | 19688 ft | 263 kts | 170° |
| 2026-04-11 11:04 | -38.12934 | 145.00365 | 20023 ft | 265 kts | 171° |
| 2026-04-11 11:04 | -38.14662 | 145.01173 | 20354 ft | 259 kts | 177° |
| 2026-04-11 11:04 | -38.16351 | 145.02055 | 20626 ft | 277 kts | 163° |
| 2026-04-11 11:05 | -38.18023 | 145.03322 | 20925 ft | 273 kts | 168° |
| 2026-04-11 11:05 | -38.19743 | 145.04275 | 21227 ft | 268 kts | 172° |
| 2026-04-11 11:05 | -38.21481 | 145.05194 | 21443 ft | 272 kts | 172° |
| 2026-04-11 11:05 | -38.23209 | 145.06122 | 21745 ft | 272 kts | 172° |
| 2026-04-11 11:06 | -38.24955 | 145.07068 | 22004 ft | 274 kts | 172° |
| 2026-04-11 11:06 | -38.26728 | 145.08029 | 22283 ft | 274 kts | 172° |
| 2026-04-11 11:06 | -38.28471 | 145.08981 | 22519 ft | 276 kts | 171° |
| 2026-04-11 11:06 | -38.30249 | 145.09952 | 22713 ft | 279 kts | 171° |
| 2026-04-11 11:07 | -38.32017 | 145.10924 | 22962 ft | 279 kts | 172° |
| 2026-04-11 11:07 | -38.33818 | 145.11912 | 23155 ft | 280 kts | 171° |
| 2026-04-11 11:07 | -38.35621 | 145.12909 | 23385 ft | 281 kts | 172° |
| 2026-04-11 11:07 | -38.37402 | 145.13869 | 23604 ft | 274 kts | 177° |
| 2026-04-11 11:08 | -38.39228 | 145.14674 | 23746 ft | 280 kts | 173° |
| 2026-04-11 11:08 | -38.41014 | 145.15685 | 23950 ft | 284 kts | 171° |
| 2026-04-11 11:08 | -38.42833 | 145.16742 | 24059 ft | 288 kts | 171° |
| 2026-04-11 11:08 | -38.44654 | 145.17795 | 24298 ft | 286 kts | 171° |
| 2026-04-11 11:09 | -38.46457 | 145.18828 | 24496 ft | 286 kts | 171° |
| 2026-04-11 11:09 | -38.48294 | 145.19867 | 24588 ft | 289 kts | 171° |
| 2026-04-11 11:09 | -38.50149 | 145.20915 | 24771 ft | 289 kts | 171° |
| 2026-04-11 11:09 | -38.51992 | 145.21905 | 24828 ft | 289 kts | 175° |
| 2026-04-11 11:10 | -38.53903 | 145.22752 | 24840 ft | 292 kts | 176° |
| 2026-04-11 11:10 | -38.55845 | 145.23583 | 24844 ft | 298 kts | 176° |
| 2026-04-11 11:10 | -38.57831 | 145.24437 | 24841 ft | 305 kts | 176° |
| 2026-04-11 11:10 | -38.59868 | 145.25317 | 24837 ft | 310 kts | 175° |
| 2026-04-11 11:11 | -38.61916 | 145.26210 | 24832 ft | 315 kts | 175° |
| 2026-04-11 11:11 | -38.64027 | 145.27135 | 24829 ft | 319 kts | 175° |
| 2026-04-11 11:11 | -38.66129 | 145.28058 | 24831 ft | 322 kts | 175° |
| 2026-04-11 11:11 | -38.68248 | 145.28992 | 24829 ft | 325 kts | 175° |
| 2026-04-11 11:12 | -38.70420 | 145.29950 | 24818 ft | 327 kts | 175° |
| 2026-04-11 11:12 | -38.72577 | 145.30904 | 24816 ft | 329 kts | 175° |
| 2026-04-11 11:12 | -38.74740 | 145.31862 | 24817 ft | 330 kts | 175° |
| 2026-04-11 11:12 | -38.76922 | 145.32828 | 24814 ft | 331 kts | 175° |
| 2026-04-11 11:13 | -38.79082 | 145.33783 | 24807 ft | 332 kts | 175° |
| 2026-04-11 11:13 | -38.81283 | 145.34760 | 24811 ft | 332 kts | 175° |
| 2026-04-11 11:13 | -38.83463 | 145.35725 | 24806 ft | 333 kts | 175° |
| 2026-04-11 11:13 | -38.85662 | 145.36702 | 24797 ft | 334 kts | 175° |
| 2026-04-11 11:14 | -38.87865 | 145.37680 | 24791 ft | 334 kts | 175° |
| 2026-04-11 11:14 | -38.90064 | 145.38657 | 24793 ft | 334 kts | 175° |
| 2026-04-11 11:14 | -38.92267 | 145.39636 | 24795 ft | 333 kts | 175° |
| 2026-04-11 11:14 | -38.94434 | 145.40601 | 24797 ft | 333 kts | 175° |
| 2026-04-11 11:15 | -38.96658 | 145.41586 | 24798 ft | 333 kts | 175° |
| 2026-04-11 11:15 | -38.98845 | 145.42548 | 24793 ft | 333 kts | 175° |
| 2026-04-11 11:15 | -39.01005 | 145.43529 | 24785 ft | 333 kts | 175° |
| 2026-04-11 11:15 | -39.03214 | 145.44514 | 24778 ft | 333 kts | 175° |
| 2026-04-11 11:16 | -39.05416 | 145.45496 | 24787 ft | 333 kts | 175° |
| 2026-04-11 11:16 | -39.07598 | 145.46468 | 24768 ft | 333 kts | 175° |
| 2026-04-11 11:16 | -39.09792 | 145.47447 | 24775 ft | 333 kts | 175° |
| 2026-04-11 11:16 | -39.12007 | 145.48436 | 24770 ft | 333 kts | 175° |
| 2026-04-11 11:17 | -39.14176 | 145.49405 | 24769 ft | 333 kts | 175° |
| 2026-04-11 11:17 | -39.16371 | 145.50388 | 24775 ft | 333 kts | 175° |
| 2026-04-11 11:17 | -39.18562 | 145.51367 | 24791 ft | 333 kts | 174° |
| 2026-04-11 11:17 | -39.20779 | 145.52359 | 24775 ft | 334 kts | 174° |
| 2026-04-11 11:18 | -39.22980 | 145.53346 | 24770 ft | 335 kts | 174° |
| 2026-04-11 11:18 | -39.25178 | 145.54332 | 24770 ft | 335 kts | 174° |
| 2026-04-11 11:18 | -39.27359 | 145.55310 | 24771 ft | 335 kts | 174° |
| 2026-04-11 11:18 | -39.29586 | 145.56311 | 24778 ft | 335 kts | 174° |
| 2026-04-11 11:19 | -39.31768 | 145.57292 | 24780 ft | 335 kts | 174° |
| 2026-04-11 11:19 | -39.33998 | 145.58293 | 24767 ft | 336 kts | 173° |
| 2026-04-11 11:19 | -39.36204 | 145.59286 | 24759 ft | 336 kts | 173° |
| 2026-04-11 11:19 | -39.38392 | 145.60272 | 24761 ft | 336 kts | 173° |
| 2026-04-11 11:20 | -39.40623 | 145.61278 | 24744 ft | 336 kts | 173° |
| 2026-04-11 11:20 | -39.42815 | 145.62268 | 24753 ft | 336 kts | 173° |
| 2026-04-11 11:20 | -39.45018 | 145.63263 | 24760 ft | 335 kts | 173° |
| 2026-04-11 11:20 | -39.47239 | 145.64265 | 24764 ft | 335 kts | 173° |
| 2026-04-11 11:21 | -39.49420 | 145.65250 | 24754 ft | 336 kts | 172° |
| 2026-04-11 11:21 | -39.51643 | 145.66255 | 24737 ft | 335 kts | 172° |
| 2026-04-11 11:21 | -39.53824 | 145.67244 | 24750 ft | 335 kts | 172° |
| 2026-04-11 11:21 | -39.56037 | 145.68245 | 24740 ft | 335 kts | 172° |
| 2026-04-11 11:22 | -39.58237 | 145.69241 | 24735 ft | 334 kts | 172° |
| 2026-04-11 11:22 | -39.60405 | 145.70226 | 24750 ft | 334 kts | 172° |
| 2026-04-11 11:22 | -39.62610 | 145.71225 | 24748 ft | 334 kts | 171° |
| 2026-04-11 11:22 | -39.64803 | 145.72220 | 24738 ft | 334 kts | 171° |
| 2026-04-11 11:23 | -39.67016 | 145.73225 | 24734 ft | 335 kts | 171° |
| 2026-04-11 11:23 | -39.69223 | 145.74228 | 24719 ft | 335 kts | 171° |
| 2026-04-11 11:23 | -39.71426 | 145.75230 | 24729 ft | 334 kts | 171° |
| 2026-04-11 11:23 | -39.73614 | 145.76227 | 24724 ft | 334 kts | 171° |
| 2026-04-11 11:24 | -39.75822 | 145.77234 | 24739 ft | 333 kts | 171° |
| 2026-04-11 11:24 | -39.77998 | 145.78226 | 24721 ft | 333 kts | 171° |
| 2026-04-11 11:24 | -39.80196 | 145.79228 | 24740 ft | 333 kts | 170° |
| 2026-04-11 11:24 | -39.82414 | 145.80235 | 24502 ft | 340 kts | 171° |
| 2026-04-11 11:25 | -39.84665 | 145.81256 | 24190 ft | 348 kts | 171° |
| 2026-04-11 11:25 | -39.86975 | 145.82307 | 23838 ft | 352 kts | 169° |
| 2026-04-11 11:25 | -39.89241 | 145.83353 | 23465 ft | 346 kts | 169° |
| 2026-04-11 11:25 | -39.91502 | 145.84399 | 23087 ft | 340 kts | 169° |
| 2026-04-11 11:26 | -39.93695 | 145.85411 | 22734 ft | 335 kts | 169° |
| 2026-04-11 11:26 | -39.95885 | 145.86421 | 22388 ft | 331 kts | 169° |
| 2026-04-11 11:26 | -39.98038 | 145.87411 | 22041 ft | 328 kts | 169° |
| 2026-04-11 11:26 | -40.00180 | 145.88396 | 21702 ft | 325 kts | 169° |
| 2026-04-11 11:27 | -40.02303 | 145.89375 | 21371 ft | 323 kts | 169° |
| 2026-04-11 11:27 | -40.04432 | 145.90361 | 21015 ft | 322 kts | 169° |
| 2026-04-11 11:27 | -40.06521 | 145.91330 | 20678 ft | 320 kts | 169° |
| 2026-04-11 11:27 | -40.08625 | 145.92305 | 20329 ft | 319 kts | 169° |
| 2026-04-11 11:28 | -40.10695 | 145.93265 | 20011 ft | 317 kts | 169° |
| 2026-04-11 11:28 | -40.12787 | 145.94235 | 19671 ft | 317 kts | 169° |
| 2026-04-11 11:28 | -40.14848 | 145.95189 | 19336 ft | 318 kts | 169° |
| 2026-04-11 11:28 | -40.16959 | 145.96167 | 18995 ft | 320 kts | 169° |
| 2026-04-11 11:29 | -40.21140 | 145.98109 | 18323 ft | 322 kts | 169° |
| 2026-04-11 11:29 | -40.23249 | 145.99091 | 17992 ft | 322 kts | 169° |
| 2026-04-11 11:29 | -40.25372 | 146.00079 | 17654 ft | 323 kts | 169° |
| 2026-04-11 11:30 | -40.27493 | 146.01068 | 17313 ft | 323 kts | 169° |
| 2026-04-11 11:30 | -40.29591 | 146.02046 | 16976 ft | 324 kts | 169° |
| 2026-04-11 11:30 | -40.31728 | 146.03043 | 16613 ft | 324 kts | 169° |
| 2026-04-11 11:30 | -40.33845 | 146.04031 | 16274 ft | 324 kts | 169° |
| 2026-04-11 11:31 | -40.35954 | 146.05017 | 15943 ft | 324 kts | 169° |
| 2026-04-11 11:31 | -40.38094 | 146.06020 | 15594 ft | 324 kts | 169° |
| 2026-04-11 11:31 | -40.40226 | 146.07016 | 15255 ft | 324 kts | 168° |
| 2026-04-11 11:31 | -40.42337 | 146.08005 | 14913 ft | 323 kts | 168° |
| 2026-04-11 11:32 | -40.44466 | 146.09003 | 14565 ft | 323 kts | 168° |
| 2026-04-11 11:32 | -40.46168 | 146.09802 | 14287 ft | 322 kts | 168° |
| 2026-04-11 11:32 | -40.48283 | 146.10794 | 13960 ft | 321 kts | 168° |
| 2026-04-11 11:32 | -40.50414 | 146.11795 | 13610 ft | 320 kts | 168° |
| 2026-04-11 11:33 | -40.52512 | 146.12782 | 13284 ft | 319 kts | 168° |
| 2026-04-11 11:33 | -40.54593 | 146.13760 | 12947 ft | 317 kts | 168° |
| 2026-04-11 11:33 | -40.56679 | 146.14741 | 12598 ft | 315 kts | 168° |
| 2026-04-11 11:33 | -40.58731 | 146.15709 | 12269 ft | 313 kts | 168° |
| 2026-04-11 11:34 | -40.60775 | 146.16672 | 11939 ft | 311 kts | 168° |
| 2026-04-11 11:34 | -40.62812 | 146.17633 | 11606 ft | 310 kts | 168° |
| 2026-04-11 11:34 | -40.64867 | 146.18602 | 11269 ft | 308 kts | 168° |
| 2026-04-11 11:34 | -40.66872 | 146.19548 | 10958 ft | 306 kts | 168° |
| 2026-04-11 11:35 | -40.68891 | 146.20506 | 10627 ft | 305 kts | 167° |
| 2026-04-11 11:35 | -40.70766 | 146.21890 | 10295 ft | 316 kts | 148° |
| 2026-04-11 11:35 | -40.72417 | 146.23810 | 9966 ft | 318 kts | 144° |
| 2026-04-11 11:35 | -40.74052 | 146.25769 | 9630 ft | 317 kts | 144° |
| 2026-04-11 11:36 | -40.75699 | 146.27745 | 9298 ft | 316 kts | 144° |
| 2026-04-11 11:36 | -40.77303 | 146.29680 | 9235 ft | 306 kts | 144° |
| 2026-04-11 11:36 | -40.78856 | 146.31546 | 8988 ft | 304 kts | 145° |
| 2026-04-11 11:36 | -40.80425 | 146.33423 | 8691 ft | 305 kts | 145° |
| 2026-04-11 11:37 | -40.82008 | 146.35313 | 8373 ft | 306 kts | 145° |
| 2026-04-11 11:37 | -40.83578 | 146.37193 | 8045 ft | 301 kts | 145° |
| 2026-04-11 11:37 | -40.85092 | 146.39014 | 7726 ft | 291 kts | 146° |
| 2026-04-11 11:37 | -40.86565 | 146.40788 | 7420 ft | 282 kts | 146° |
| 2026-04-11 11:38 | -40.88002 | 146.42516 | 7123 ft | 274 kts | 146° |
| 2026-04-11 11:38 | -40.89398 | 146.44191 | 6842 ft | 267 kts | 147° |
| 2026-04-11 11:38 | -40.90771 | 146.45834 | 6563 ft | 266 kts | 147° |
| 2026-04-11 11:38 | -40.92163 | 146.47485 | 6274 ft | 270 kts | 147° |
| 2026-04-11 11:39 | -40.93557 | 146.49144 | 5989 ft | 273 kts | 147° |
| 2026-04-11 11:39 | -40.94991 | 146.50854 | 5693 ft | 276 kts | 147° |
| 2026-04-11 11:39 | -40.96416 | 146.52560 | 5404 ft | 277 kts | 146° |
| 2026-04-11 11:39 | -40.97847 | 146.54275 | 5118 ft | 276 kts | 146° |
| 2026-04-11 11:40 | -40.99246 | 146.55965 | 4829 ft | 270 kts | 146° |
| 2026-04-11 11:40 | -41.00606 | 146.57603 | 4549 ft | 264 kts | 146° |
| 2026-04-11 11:40 | -41.01958 | 146.59232 | 4271 ft | 260 kts | 146° |
| 2026-04-11 11:40 | -41.03345 | 146.60736 | 3961 ft | 249 kts | 159° |
| 2026-04-11 11:41 | -41.04902 | 146.61313 | 3748 ft | 226 kts | 183° |
| 2026-04-11 11:41 | -41.06455 | 146.61545 | 3510 ft | 222 kts | 184° |
| 2026-04-11 11:41 | -41.07972 | 146.61760 | 3272 ft | 219 kts | 183° |
| 2026-04-11 11:41 | -41.09471 | 146.61801 | 2909 ft | 206 kts | 201° |
| 2026-04-11 11:42 | -41.10510 | 146.60844 | 2728 ft | 178 kts | 239° |
| 2026-04-11 11:42 | -41.11137 | 146.59419 | 2505 ft | 178 kts | 244° |
| 2026-04-11 11:42 | -41.11717 | 146.57980 | 2262 ft | 172 kts | 245° |
| 2026-04-11 11:42 | -41.12254 | 146.56624 | 2035 ft | 161 kts | 245° |
| 2026-04-11 11:43 | -41.12745 | 146.55359 | 1828 ft | 146 kts | 246° |
| 2026-04-11 11:43 | -41.13173 | 146.54260 | 1619 ft | 123 kts | 246° |
| 2026-04-11 11:43 | -41.13544 | 146.53285 | 1482 ft | 115 kts | 248° |
| 2026-04-11 11:43 | -41.13891 | 146.52350 | 1341 ft | 111 kts | 248° |
| 2026-04-11 11:44 | -41.14219 | 146.51462 | 1218 ft | 101 kts | 248° |
| 2026-04-11 11:44 | -41.14517 | 146.50635 | 1107 ft | 102 kts | 250° |
| 2026-04-11 11:44 | -41.14830 | 146.49753 | 968 ft | 108 kts | 249° |
| 2026-04-11 11:44 | -41.15167 | 146.48814 | 812 ft | 115 kts | 248° |
| 2026-04-11 11:45 | -41.15517 | 146.47855 | 644 ft | 116 kts | 248° |
| 2026-04-11 11:45 | -41.15862 | 146.46925 | 478 ft | 108 kts | 247° |
| 2026-04-11 11:45 | -41.16167 | 146.46046 | 354 ft | 105 kts | 252° |
| 2026-04-11 11:45 | -41.16375 | 146.45111 | 256 ft | 108 kts | 257° |
| 2026-04-11 11:46 | -41.16564 | 146.44107 | 78 ft | 114 kts | 257° |
| 2026-04-11 11:46 | -41.16745 | 146.43127 | 29 ft | 91 kts | 255° |
| 2026-04-11 11:46 | -41.16833 | 146.42659 | 31 ft | 16 kts | 246° |
| 2026-04-11 11:46 | -41.16928 | 146.42653 | 32 ft | 0 kts | 166° |
| 2026-04-11 11:48 | -41.16965 | 146.42665 | 33 ft | 15 kts | 167° |
| 2026-04-11 11:48 | -41.17084 | 146.42709 | 36 ft | 11 kts | 146° |
| 2026-04-11 11:48 | -41.17118 | 146.42743 | 36 ft | 4 kts | 190° |
| 2026-04-11 11:49 | -41.17138 | 146.42735 | 37 ft | 0 kts | 194° |